»·PEaware :: AAL1472 KLAX-KLAS

AAL1472 :: KLAX-KLAS

FLIGHT INFORMATION

Flight Status: Arrived
Operator:
American Airlines
More flights by this operator :: More flights under this callsign
Pilot: Luc P. (3613)
Aircraft: Unknown
(A21N)
More flights by this aircraft type
Origin: KLAX Los Angeles Intl
United States
Destination: KLAS McCarran Intl
United States
More flights between these airports :: More routes between these airports
Route: ORCKA5 MISEN KEPEC6
File this flight plan on PilotEdge
Remarks:
Altitude:
(Current/Filed)
27,000ft
Speed:
(Current/Filed)
443kts
Departed: 12-Jan-21 11:16 AM
Arrived: 12-Jan-21 12:03 PM
Distance/Time
Traveled:
205nm/0:47
Distance/Time
To Go:
Arrived

Flight Plot

Page will automatically refresh every two minutes.

Flight plan parsing failed; only flown route is shown


Map Options




Map Legend


Flown Route
Filed Route
Departure Airport
Arrival Airport
Navaid (VOR, NDB)
Fix

Horizontal Profiles

Position Reports

Time Latitude Longitude Heading Altitude Ground
Speed
12-Jan-21 10:30 33.941110 -118.406228 262 129ft 0kts
12-Jan-21 10:32 33.941110 -118.406228 262 129ft 0kts
12-Jan-21 10:32 33.941110 -118.406228 262 129ft 0kts
12-Jan-21 10:33 33.941110 -118.406228 262 129ft 0kts
12-Jan-21 10:35 33.941110 -118.406228 262 129ft 0kts
12-Jan-21 10:36 33.941110 -118.406228 262 129ft 0kts
12-Jan-21 10:36 33.941110 -118.406228 262 129ft 0kts
12-Jan-21 10:37 33.941110 -118.406228 262 129ft 0kts
12-Jan-21 10:38 33.941110 -118.406228 262 129ft 0kts
12-Jan-21 10:39 33.941110 -118.406228 262 129ft 0kts
12-Jan-21 10:40 33.941110 -118.406228 262 129ft 0kts
12-Jan-21 10:41 33.941110 -118.406228 262 129ft 0kts
12-Jan-21 10:42 33.941110 -118.406228 262 129ft 0kts
12-Jan-21 10:43 33.941110 -118.406228 262 129ft 0kts
12-Jan-21 10:44 33.941110 -118.406228 262 129ft 0kts
12-Jan-21 10:45 33.941110 -118.406228 262 129ft 0kts
12-Jan-21 10:46 33.941110 -118.406228 262 129ft 0kts
12-Jan-21 10:47 33.941110 -118.406228 262 129ft 0kts
12-Jan-21 10:48 33.941110 -118.406228 262 129ft 0kts
12-Jan-21 10:49 33.941110 -118.406228 262 129ft 0kts
12-Jan-21 10:50 33.941110 -118.406228 262 129ft 0kts
12-Jan-21 10:51 33.941110 -118.406228 262 129ft 0kts
12-Jan-21 10:52 33.941110 -118.406228 262 129ft 0kts
12-Jan-21 10:53 33.941110 -118.406228 262 129ft 0kts
12-Jan-21 10:54 33.941110 -118.406228 262 129ft 0kts
12-Jan-21 10:55 33.941110 -118.406228 262 129ft 0kts
12-Jan-21 10:56 33.941110 -118.406228 262 129ft 0kts
12-Jan-21 10:57 33.941110 -118.406228 262 129ft 0kts
12-Jan-21 10:58 33.941110 -118.406228 262 129ft 0kts
12-Jan-21 10:59 33.941110 -118.406228 262 129ft 0kts
12-Jan-21 11:00 33.941110 -118.406228 262 129ft 0kts
12-Jan-21 11:01 33.941110 -118.406228 262 129ft 0kts
12-Jan-21 11:02 33.941110 -118.406228 262 129ft 0kts
12-Jan-21 11:03 33.941110 -118.406228 262 129ft 0kts
12-Jan-21 11:04 33.941130 -118.405950 259 129ft 2kts
12-Jan-21 11:05 33.941331 -118.405650 171 129ft 1kts
12-Jan-21 11:06 33.941340 -118.405652 171 129ft 0kts
12-Jan-21 11:07 33.941340 -118.405652 171 129ft 0kts
12-Jan-21 11:08 33.941194 -118.405619 173 129ft 3kts
12-Jan-21 11:09 33.939258 -118.405352 172 129ft 8kts
12-Jan-21 11:10 33.938450 -118.403212 83 126ft 11kts
12-Jan-21 11:11 33.938911 -118.398855 82 120ft 14kts
12-Jan-21 11:12 33.939445 -118.393477 82 113ft 17kts
12-Jan-21 11:13 33.940154 -118.386591 83 108ft 22kts
12-Jan-21 11:14 33.940744 -118.380746 83 105ft 8kts
12-Jan-21 11:15 33.939571 -118.383006 263 106ft 64kts
12-Jan-21 11:16 33.933323 -118.433599 260 2098ft 175kts
12-Jan-21 11:17 33.916609 -118.495123 248 4451ft 222kts
12-Jan-21 11:18 33.887430 -118.575387 235 7154ft 277kts
12-Jan-21 11:19 33.818474 -118.573848 124 10331ft 296kts
12-Jan-21 11:20 33.847202 -118.487671 25 11841ft 348kts
12-Jan-21 11:21 33.934103 -118.425894 44 14481ft 374kts
12-Jan-21 11:22 33.995148 -118.321659 53 17403ft 388kts
12-Jan-21 11:23 34.057179 -118.211919 53 20061ft 402kts
12-Jan-21 11:24 34.121711 -118.098110 52 22422ft 416kts
12-Jan-21 11:25 34.188345 -117.980035 52 24867ft 420kts
12-Jan-21 11:26 34.253544 -117.863878 51 27246ft 411kts
12-Jan-21 11:27 34.320331 -117.744755 51 27320ft 422kts
12-Jan-21 11:28 34.388159 -117.627167 49 27320ft 421kts
12-Jan-21 11:29 34.457711 -117.511110 49 27320ft 422kts
12-Jan-21 11:30 34.527012 -117.394624 49 27320ft 422kts
12-Jan-21 11:31 34.595875 -117.278102 50 27320ft 422kts
12-Jan-21 11:32 34.664910 -117.161042 50 27320ft 422kts
12-Jan-21 11:33 34.733938 -117.043840 50 27329ft 423kts
12-Jan-21 11:34 34.802731 -116.926643 50 27371ft 421kts
12-Jan-21 11:35 34.870854 -116.810276 50 27394ft 420kts
12-Jan-21 11:36 34.938893 -116.692883 51 27351ft 422kts
12-Jan-21 11:37 35.005978 -116.573801 51 26335ft 425kts
12-Jan-21 11:38 35.073878 -116.453223 52 25245ft 428kts
12-Jan-21 11:39 35.149035 -116.344209 42 24398ft 406kts
12-Jan-21 11:40 35.228746 -116.244403 43 23012ft 407kts
12-Jan-21 11:41 35.307562 -116.145317 43 21121ft 397kts
12-Jan-21 11:42 35.384383 -116.048464 43 19262ft 386kts
12-Jan-21 11:43 35.458668 -115.954552 44 17458ft 375kts
12-Jan-21 11:44 35.530903 -115.862953 44 15657ft 365kts
12-Jan-21 11:45 35.600856 -115.774073 44 13891ft 355kts
12-Jan-21 11:46 35.666939 -115.689822 44 13112ft 315kts
12-Jan-21 11:47 35.724157 -115.616748 44 13077ft 279kts
12-Jan-21 11:48 35.788463 -115.572424 0 13080ft 271kts
12-Jan-21 11:49 35.869153 -115.568612 1 13079ft 293kts
12-Jan-21 11:50 35.950949 -115.563117 12 13069ft 294kts
12-Jan-21 11:51 35.997066 -115.482074 68 12129ft 302kts
12-Jan-21 11:52 36.026626 -115.386544 72 11080ft 281kts
12-Jan-21 11:53 36.024830 -115.293520 95 9998ft 264kts
12-Jan-21 11:54 36.018126 -115.203557 95 8380ft 257kts
12-Jan-21 11:55 36.012325 -115.118136 95 7273ft 239kts
12-Jan-21 11:56 36.007198 -115.037916 94 6422ft 225kts
12-Jan-21 11:57 36.012868 -114.963416 40 5347ft 222kts
12-Jan-21 11:58 36.063981 -114.971721 299 4416ft 194kts
12-Jan-21 12:00 36.074196 -115.029287 264 3669ft 155kts
12-Jan-21 12:01 36.073741 -115.082020 269 2960ft 152kts
12-Jan-21 12:02 36.073692 -115.134577 270 2188ft 141kts
12-Jan-21 12:03 36.074392 -115.154385 299 2187ft 14kts
12-Jan-21 12:04 36.076775 -115.157899 317 2187ft 10kts
12-Jan-21 12:05 36.077433 -115.158231 353 2187ft 0kts
12-Jan-21 12:06 36.077990 -115.157947 65 2187ft 6kts

Navigation Log

Ident Type
Flight plan parsing failed, navigation log unavailable